Simmons Army Air Field
KFBG : now visible

Airfield :











YOU CAN JOIN US ON...

 
LOGIN :

Register | Disclaimer

   EN    FR    IT 

 









Legend :    VFR   Marginal VFR   IFR   Intensive IFR   Very Intensive IFR
Visi :
Ceiling :
>= 8 km
>= 3000ft
5 to 8 km
1000 to 3000 ft
1500m to 5 km
500 to 1000 ft
800 to 1500m
200 to 500 ft
< 800m
< 200 ft
Symbols :   Thunderstorms  Fog  Heavy snow  Heavy precipitations  Wind > 20 kt






- Airport Elevation : 244 ft


KFBG - Simmons Army Air Field

CURRENT METAR :
  • 142026Z AUTO 26011KT 10SM OVC016 12/09 A2957 RMK AO2 SLP016 $

EXPIRED METARs :
  • 141926Z AUTO 24008G16KT 10SM OVC010 11/10 A2956 RMK AO2 SLP013 $
  • 141856Z AUTO 26014KT 10SM OVC009 10/10 A2955 RMK AO2 SLP009 T01040095 $
  • 141811Z AUTO 26016G25KT 10SM OVC012 12/09 A2954 RMK AO2 PRESRR SLP006 $
  • 141756Z AUTO 27012KT 10SM OVC013 12/10 A2952 RMK AO2 SLP999 60001 T01210100 10128 20079 55008 $

TAF TAF KFBG
Valid from the 14 at 18:00 until the 16 at 00:00 UTC


141800Z 1418/1524 27012G18KT 9999 BKN010 QNH2952INS
TEMPO 1418/1421 BKN015
BECMG 1420/1421 27012KT 9999 SCT020 QNH2958INS
BECMG 1502/1503 27009KT 9999 SKC QNH2977INS
BECMG 1520/1521 24006KT 9999 SCT120 QNH3008INS TX13/1418Z TN04/1512Z



MET'MAP, your aeronautical weather chart ! - Copyright ORBIFLY December 2007 - Disclaimer

ORBIFLY MET'MAP TEAM :

Programming & Development : Alexandra Zaïnal
Concept & original design : Baudouin d'Aumeries
Assistance for programming : Marc-Olivier Méhu
Technical & hardware support : Manuel Goepfert

Contact : metmap@orbifly.com




SOURCES & CREDITS :

   NOAA       Earth
Advisory